Terminal Aerodrome Forecast
Issued by NWS Cleveland, OH

Home | Current Version | Previous Version | Graphics & Text | Print | Product List | Glossary On
Versions: 1 2 3 4 5 6 7 8 9 10 11 12 13 14 15 16 17 18 19
000
FTUS41 KCLE 220530
TAFTOL
TAF
KTOL 220530Z 2206/2306 15005KT P6SM VCSH SCT060 OVC120
     FM220800 16004KT 6SM -TSRA BKN050CB OVC090
      TEMPO 2208/2212 4SM TS OVC030CB
     FM221500 22010KT 6SM -SHRA VCTS SCT030CB OVC050
     FM221700 24010KT P6SM SCT040 BKN080=

USA.gov is the U.S. government's official web portal to all federal, state and local government web resources and services.